createdAt,value
2022-07-29T00:00:40.624Z,12.84
2022-07-29T00:04:42.817Z,12.82
2022-07-29T00:08:45.242Z,12.83
2022-07-29T00:12:48.336Z,12.81
2022-07-29T00:16:50.701Z,12.74
2022-07-29T00:20:52.737Z,12.82
2022-07-29T00:24:55.249Z,12.81
2022-07-29T00:29:23.719Z,12.75
2022-07-29T00:33:20.121Z,12.60
2022-07-29T00:37:22.490Z,12.66
2022-07-29T00:41:24.700Z,12.74
2022-07-29T00:45:26.987Z,12.74
2022-07-29T00:49:29.334Z,12.74
2022-07-29T00:53:32.333Z,12.79
2022-07-29T00:57:35.700Z,12.70
2022-07-29T01:01:37.816Z,12.75
2022-07-29T01:05:49.883Z,12.83
2022-07-29T01:09:56.449Z,12.88
2022-07-29T01:13:58.826Z,12.99
2022-07-29T01:18:11.552Z,13.12
2022-07-29T01:22:45.583Z,13.29
2022-07-29T01:27:00.293Z,13.42
2022-07-29T01:31:05.313Z,13.45
2022-07-29T01:35:18.808Z,13.48
2022-07-29T01:39:27.382Z,13.50
2022-07-29T01:43:38.146Z,13.45
2022-07-29T01:47:46.501Z,13.45
2022-07-29T01:52:14.364Z,13.43
2022-07-29T01:56:24.240Z,13.38
2022-07-29T02:00:28.118Z,13.39
2022-07-29T02:04:35.002Z,13.42
2022-07-29T02:08:39.711Z,13.42
2022-07-29T02:12:46.608Z,13.42
2022-07-29T02:16:57.078Z,13.41
2022-07-29T02:21:02.810Z,13.34
2022-07-29T02:25:06.557Z,13.32
2022-07-29T02:29:17.868Z,13.24
2022-07-29T02:33:21.914Z,13.09
2022-07-29T02:37:26.136Z,13.05
2022-07-29T02:41:47.942Z,13.01
2022-07-29T02:45:53.070Z,13.03
2022-07-29T02:50:10.615Z,12.99
2022-07-29T02:54:22.761Z,12.98
2022-07-29T02:58:30.856Z,12.84
2022-07-29T03:02:42.336Z,12.96
2022-07-29T03:06:45.928Z,12.86
2022-07-29T03:10:49.374Z,12.85
2022-07-29T03:14:52.925Z,12.86
2022-07-29T03:18:55.848Z,12.77
2022-07-29T03:22:58.027Z,12.79
2022-07-29T03:27:00.648Z,12.82
2022-07-29T03:31:02.775Z,12.80
2022-07-29T03:35:08.844Z,12.79
2022-07-29T03:39:13.062Z,12.83
2022-07-29T03:43:18.137Z,13.05
2022-07-29T03:47:43.568Z,13.13
2022-07-29T03:51:47.115Z,13.18
2022-07-29T03:55:54.997Z,13.19
2022-07-29T03:59:58.355Z,13.27
2022-07-29T04:04:02.929Z,13.28
2022-07-29T04:08:05.513Z,13.41
2022-07-29T04:12:07.906Z,13.66
2022-07-29T04:16:10.261Z,13.83
2022-07-29T04:20:15.572Z,14.02
2022-07-29T04:24:18.949Z,14.16
2022-07-29T04:28:21.371Z,14.30
2022-07-29T04:32:23.667Z,14.50
2022-07-29T04:36:29.347Z,14.64
2022-07-29T04:40:34.181Z,14.77
2022-07-29T04:44:39.456Z,14.89
2022-07-29T04:48:42.413Z,15.06
2022-07-29T04:52:44.721Z,15.27
2022-07-29T04:56:47.636Z,15.43
2022-07-29T05:00:50.325Z,15.57
2022-07-29T05:04:52.651Z,15.68
2022-07-29T05:08:54.890Z,15.90
2022-07-29T05:12:57.366Z,16.16
2022-07-29T05:17:00.234Z,16.32
2022-07-29T05:21:02.497Z,16.43
2022-07-29T05:25:09.006Z,16.51
2022-07-29T05:29:44.268Z,16.79
2022-07-29T05:33:37.016Z,17.02
2022-07-29T05:37:40.268Z,17.17
2022-07-29T05:41:42.426Z,17.39
2022-07-29T05:45:49.739Z,17.49
2022-07-29T05:49:52.792Z,17.72
2022-07-29T05:53:55.091Z,17.88
2022-07-29T05:57:57.253Z,17.98
2022-07-29T06:01:59.533Z,18.06
2022-07-29T06:06:01.611Z,18.18
2022-07-29T06:10:04.127Z,18.45
2022-07-29T06:14:06.228Z,18.72
2022-07-29T06:18:11.229Z,18.87
2022-07-29T06:22:13.331Z,19.13
2022-07-29T06:26:15.968Z,19.32
2022-07-29T06:30:18.470Z,19.54
2022-07-29T06:34:20.933Z,19.71
2022-07-29T06:38:30.860Z,19.91
2022-07-29T06:42:34.307Z,20.09
2022-07-29T06:46:36.540Z,20.30
2022-07-29T06:50:38.959Z,20.44
2022-07-29T06:54:48.635Z,20.75
2022-07-29T06:58:51.361Z,20.87
2022-07-29T07:02:53.631Z,21.32
2022-07-29T07:06:56.878Z,21.41
2022-07-29T07:10:58.880Z,21.59
2022-07-29T07:15:01.297Z,21.69
2022-07-29T07:19:03.725Z,21.91
2022-07-29T07:23:06.723Z,21.65
2022-07-29T07:27:08.829Z,21.80
2022-07-29T07:31:12.467Z,21.98
2022-07-29T07:35:15.148Z,22.18
2022-07-29T07:39:17.477Z,22.26
2022-07-29T07:43:19.828Z,22.77
2022-07-29T07:47:22.288Z,22.88
2022-07-29T07:51:24.443Z,23.01
2022-07-29T07:55:27.331Z,22.50
2022-07-29T07:59:30.289Z,22.76
2022-07-29T08:03:33.872Z,22.82
2022-07-29T08:07:35.902Z,23.29
2022-07-29T08:11:38.282Z,23.29
2022-07-29T08:16:12.071Z,23.22
2022-07-29T08:20:14.539Z,22.99
2022-07-29T08:24:35.201Z,23.08
2022-07-29T08:28:53.372Z,23.26
2022-07-29T08:32:56.309Z,23.48
2022-07-29T08:36:59.386Z,23.96
2022-07-29T08:41:02.290Z,24.16
2022-07-29T08:45:06.118Z,24.24
2022-07-29T08:49:08.493Z,23.98
2022-07-29T08:53:16.230Z,23.58
2022-07-29T08:57:19.446Z,23.47
2022-07-29T09:01:36.321Z,22.98
2022-07-29T09:05:48.232Z,23.16
2022-07-29T09:09:51.884Z,23.07
2022-07-29T09:13:54.306Z,23.28
2022-07-29T09:17:57.739Z,24.25
2022-07-29T09:22:03.762Z,23.78
2022-07-29T09:26:07.172Z,23.44
2022-07-29T09:30:12.142Z,23.48
2022-07-29T09:34:17.068Z,23.61
2022-07-29T09:38:19.063Z,23.70
2022-07-29T09:42:31.027Z,24.26
2022-07-29T09:46:33.065Z,24.27
2022-07-29T09:50:42.372Z,24.41
2022-07-29T09:54:45.107Z,24.77
2022-07-29T09:58:47.310Z,24.73
2022-07-29T10:02:49.464Z,24.99
2022-07-29T10:07:04.647Z,25.29
2022-07-29T10:11:13.196Z,24.95
2022-07-29T10:15:17.265Z,24.85
2022-07-29T10:19:19.489Z,24.90
2022-07-29T10:23:22.073Z,24.69
2022-07-29T10:27:24.278Z,24.26
2022-07-29T10:31:36.502Z,24.35
2022-07-29T10:36:10.644Z,24.19
2022-07-29T10:40:50.322Z,24.28
2022-07-29T10:44:54.572Z,24.25
2022-07-29T10:49:24.320Z,24.69
2022-07-29T10:53:48.950Z,24.73
2022-07-29T10:58:14.743Z,24.42
2022-07-29T11:02:42.699Z,24.44
2022-07-29T11:11:44.119Z,24.58
2022-07-29T11:15:55.547Z,24.59
2022-07-29T11:20:31.551Z,24.86
2022-07-29T11:24:35.863Z,25.22
2022-07-29T11:28:49.987Z,25.19
2022-07-29T11:32:52.181Z,25.36
2022-07-29T11:37:16.125Z,25.35
2022-07-29T11:41:31.751Z,25.40
2022-07-29T11:45:48.223Z,24.92
2022-07-29T11:49:55.106Z,24.82
2022-07-29T11:54:05.168Z,25.21
2022-07-29T11:58:09.175Z,25.84
2022-07-29T12:02:37.177Z,26.80
2022-07-29T12:06:37.164Z,26.52
2022-07-29T12:10:41.271Z,25.87
2022-07-29T12:14:47.916Z,25.31
2022-07-29T12:19:04.065Z,26.10
2022-07-29T12:23:14.838Z,26.68
2022-07-29T12:27:19.326Z,26.35
2022-07-29T12:31:42.088Z,25.71
2022-07-29T12:36:06.193Z,26.15
2022-07-29T12:40:12.946Z,26.17
2022-07-29T12:44:17.847Z,25.88
2022-07-29T12:48:37.751Z,25.41
2022-07-29T12:52:40.498Z,25.01
2022-07-29T12:56:46.084Z,24.79
2022-07-29T13:00:48.457Z,25.18
2022-07-29T13:04:58.968Z,25.23
2022-07-29T13:09:08.126Z,25.68
2022-07-29T13:13:12.706Z,25.96
2022-07-29T13:17:21.826Z,26.36
2022-07-29T13:21:24.090Z,26.28
2022-07-29T13:25:29.687Z,26.32
2022-07-29T13:29:31.895Z,26.31
2022-07-29T13:33:34.284Z,26.41
2022-07-29T13:37:39.635Z,26.14
2022-07-29T13:41:42.228Z,25.98
2022-07-29T13:45:44.356Z,26.29
2022-07-29T13:49:46.988Z,26.27
2022-07-29T13:53:48.964Z,25.53
2022-07-29T13:57:51.518Z,25.26
2022-07-29T14:01:53.633Z,25.26
2022-07-29T14:05:57.398Z,25.26
2022-07-29T14:09:59.465Z,25.62
2022-07-29T14:14:02.102Z,26.36
2022-07-29T14:18:04.571Z,25.94
2022-07-29T14:22:09.019Z,25.54
2022-07-29T14:26:12.405Z,25.26
2022-07-29T14:30:24.446Z,25.25
2022-07-29T14:34:26.685Z,25.62
2022-07-29T14:38:28.946Z,25.91
2022-07-29T14:42:34.522Z,26.21
2022-07-29T14:46:37.104Z,25.87
2022-07-29T14:50:39.917Z,25.68
2022-07-29T14:54:42.168Z,25.45
2022-07-29T14:58:51.984Z,25.23
2022-07-29T15:03:02.753Z,25.14
2022-07-29T15:07:05.558Z,25.07
2022-07-29T15:11:07.884Z,25.04
2022-07-29T15:15:10.052Z,25.06
2022-07-29T15:19:12.428Z,25.31
2022-07-29T15:23:14.560Z,25.36
2022-07-29T15:27:16.771Z,25.09
2022-07-29T15:31:22.209Z,25.07
2022-07-29T15:35:24.561Z,25.19
2022-07-29T15:39:26.813Z,25.01
2022-07-29T15:43:29.546Z,25.21
2022-07-29T15:47:31.949Z,24.96
2022-07-29T15:51:34.429Z,25.06
2022-07-29T15:55:36.511Z,24.79
2022-07-29T15:59:39.105Z,24.65
2022-07-29T16:03:45.913Z,24.42
2022-07-29T16:07:48.503Z,24.18
2022-07-29T16:11:53.691Z,24.03
2022-07-29T16:16:02.637Z,23.80
2022-07-29T16:20:06.629Z,23.57
2022-07-29T16:24:09.456Z,23.41
2022-07-29T16:28:11.483Z,23.27
2022-07-29T16:32:13.751Z,23.29
2022-07-29T16:36:18.513Z,23.27
2022-07-29T16:40:21.140Z,23.32
2022-07-29T16:44:23.279Z,23.30
2022-07-29T16:48:27.460Z,23.16
2022-07-29T16:52:30.327Z,23.11
2022-07-29T16:56:32.558Z,23.12
2022-07-29T17:00:34.822Z,23.04
2022-07-29T17:04:38.251Z,22.99
2022-07-29T17:08:40.388Z,22.96
2022-07-29T17:12:42.947Z,22.81
2022-07-29T17:16:51.684Z,22.73
2022-07-29T17:21:03.903Z,22.62
2022-07-29T17:25:07.996Z,22.68
2022-07-29T17:29:11.642Z,22.64
2022-07-29T17:33:13.738Z,22.70
2022-07-29T17:37:16.056Z,22.70
2022-07-29T17:41:18.171Z,22.67
2022-07-29T17:45:20.470Z,22.57
2022-07-29T17:49:22.543Z,22.44
2022-07-29T17:53:24.939Z,22.26
2022-07-29T17:57:27.111Z,22.16
2022-07-29T18:01:29.688Z,22.09
2022-07-29T18:05:31.898Z,21.93
2022-07-29T18:09:34.247Z,21.91
2022-07-29T18:13:36.344Z,21.73
2022-07-29T18:17:56.645Z,21.60
2022-07-29T18:22:04.752Z,21.44
2022-07-29T18:26:08.083Z,21.40
2022-07-29T18:30:10.401Z,21.18
2022-07-29T18:34:12.749Z,21.17
2022-07-29T18:38:14.873Z,21.04
2022-07-29T18:42:17.178Z,20.93
2022-07-29T18:46:19.907Z,20.73
2022-07-29T18:50:29.608Z,20.60
2022-07-29T18:54:32.096Z,20.51
2022-07-29T18:58:34.730Z,20.56
2022-07-29T19:02:38.400Z,20.50
2022-07-29T19:06:41.371Z,20.52
2022-07-29T19:10:43.697Z,20.35
2022-07-29T19:14:46.106Z,20.38
2022-07-29T19:18:48.371Z,20.14
2022-07-29T19:22:50.625Z,19.99
2022-07-29T19:26:52.646Z,19.98
2022-07-29T19:30:54.949Z,19.89
2022-07-29T19:35:15.757Z,19.81
2022-07-29T19:39:18.030Z,19.82
2022-07-29T19:43:49.705Z,19.76
2022-07-29T19:47:59.078Z,19.74
2022-07-29T19:52:03.764Z,19.85
2022-07-29T19:56:06.359Z,19.86
2022-07-29T20:00:12.651Z,19.87
2022-07-29T20:04:15.729Z,19.94
2022-07-29T20:08:18.863Z,19.79
2022-07-29T20:12:24.476Z,19.69
2022-07-29T20:16:26.649Z,19.68
2022-07-29T20:20:30.158Z,19.58
2022-07-29T20:24:32.430Z,19.47
2022-07-29T20:28:34.766Z,19.46
2022-07-29T20:32:36.923Z,19.50
2022-07-29T20:36:39.952Z,19.42
2022-07-29T20:40:42.161Z,19.29
2022-07-29T20:44:44.476Z,19.29
2022-07-29T20:48:47.512Z,19.38
2022-07-29T20:52:51.132Z,19.26
2022-07-29T20:56:53.348Z,19.27
2022-07-29T21:00:56.865Z,19.19
2022-07-29T21:04:59.032Z,19.08
2022-07-29T21:09:01.511Z,19.12
2022-07-29T21:13:03.682Z,19.05
2022-07-29T21:17:07.825Z,18.90
2022-07-29T21:21:10.453Z,18.89
2022-07-29T21:25:16.097Z,18.92
2022-07-29T21:29:18.698Z,18.98
2022-07-29T21:33:21.175Z,18.94
2022-07-29T21:37:23.476Z,18.88
2022-07-29T21:41:25.735Z,18.73
2022-07-29T21:45:27.955Z,18.86
2022-07-29T21:49:30.366Z,18.60
2022-07-29T21:53:32.528Z,18.73
2022-07-29T21:57:34.891Z,18.69
2022-07-29T22:01:39.039Z,18.65
2022-07-29T22:05:41.965Z,18.56
2022-07-29T22:09:44.145Z,18.40
2022-07-29T22:13:46.512Z,18.43
2022-07-29T22:17:48.765Z,18.39
2022-07-29T22:21:50.968Z,18.32
2022-07-29T22:25:54.122Z,18.43
2022-07-29T22:29:56.531Z,18.33
2022-07-29T22:33:58.527Z,18.30
2022-07-29T22:38:00.922Z,18.26
2022-07-29T22:42:02.933Z,18.29
2022-07-29T22:46:05.664Z,18.36
2022-07-29T22:50:08.274Z,18.27
2022-07-29T22:54:10.548Z,18.16
2022-07-29T22:58:12.681Z,18.07
2022-07-29T23:02:14.948Z,18.08
2022-07-29T23:06:17.105Z,18.14
2022-07-29T23:10:20.805Z,18.11
2022-07-29T23:14:22.949Z,18.08
2022-07-29T23:18:25.527Z,18.10
2022-07-29T23:22:27.578Z,18.04
2022-07-29T23:26:30.323Z,18.11
2022-07-29T23:30:32.362Z,18.08
2022-07-29T23:34:34.739Z,18.18
2022-07-29T23:38:41.617Z,18.07
2022-07-29T23:42:44.335Z,18.06
2022-07-29T23:46:46.650Z,17.98
2022-07-29T23:50:49.296Z,18.01
2022-07-29T23:54:51.571Z,18.03
2022-07-29T23:58:54.645Z,17.96
